createdAt,value
2022-09-06T00:01:23.477Z,93.57
2022-09-06T00:03:51.021Z,93.84
2022-09-06T00:06:19.556Z,94.11
2022-09-06T00:08:47.637Z,93.99
2022-09-06T00:11:15.484Z,94.25
2022-09-06T00:13:42.902Z,94.10
2022-09-06T00:16:18.630Z,94.44
2022-09-06T00:18:45.804Z,94.86
2022-09-06T00:21:21.814Z,94.44
2022-09-06T00:23:48.895Z,94.70
2022-09-06T00:26:16.026Z,94.89
2022-09-06T00:28:42.784Z,94.69
2022-09-06T00:31:12.040Z,94.23
2022-09-06T00:33:39.030Z,94.65
2022-09-06T00:36:06.291Z,94.63
2022-09-06T00:38:33.569Z,94.30
2022-09-06T00:41:00.431Z,94.40
2022-09-06T00:43:27.493Z,94.80
2022-09-06T00:45:55.013Z,94.88
2022-09-06T00:48:23.361Z,95.25
2022-09-06T00:50:54.335Z,95.62
2022-09-06T00:53:21.610Z,95.79
2022-09-06T00:55:48.868Z,95.76
2022-09-06T00:58:16.102Z,96.51
2022-09-06T01:00:44.675Z,96.57
2022-09-06T01:03:12.541Z,96.61
2022-09-06T01:06:21.938Z,96.20
2022-09-06T01:09:20.097Z,96.34
2022-09-06T01:12:06.963Z,96.36
2022-09-06T01:14:36.579Z,96.46
2022-09-06T01:17:26.122Z,96.42
2022-09-06T01:20:23.565Z,96.24
2022-09-06T01:23:14.752Z,96.48
2022-09-06T01:26:19.059Z,96.30
2022-09-06T01:28:50.817Z,96.19
2022-09-06T01:31:38.043Z,96.48
2022-09-06T01:34:07.760Z,96.22
2022-09-06T01:36:34.376Z,96.43
2022-09-06T01:39:01.911Z,96.26
2022-09-06T01:41:29.499Z,96.45
2022-09-06T01:43:57.195Z,96.43
2022-09-06T01:46:39.735Z,96.23
2022-09-06T01:49:48.331Z,95.90
2022-09-06T01:52:42.102Z,95.85
2022-09-06T01:55:11.782Z,96.30
2022-09-06T01:57:49.093Z,96.07
2022-09-06T02:00:18.575Z,96.15
2022-09-06T02:03:09.197Z,96.37
2022-09-06T02:05:49.973Z,96.49
2022-09-06T02:08:22.411Z,96.23
2022-09-06T02:11:00.435Z,96.30
2022-09-06T02:13:33.251Z,96.37
2022-09-06T02:16:04.024Z,96.35
2022-09-06T02:18:40.881Z,96.48
2022-09-06T02:21:10.447Z,97.05
2022-09-06T02:23:40.443Z,97.02
2022-09-06T02:26:15.653Z,96.93
2022-09-06T02:28:42.376Z,97.71
2022-09-06T02:31:22.270Z,97.70
2022-09-06T02:33:51.185Z,97.21
2022-09-06T02:36:18.837Z,97.71
2022-09-06T02:38:46.187Z,97.80
2022-09-06T02:41:16.117Z,97.86
2022-09-06T02:43:43.623Z,97.90
2022-09-06T02:46:10.705Z,97.46
2022-09-06T02:48:37.487Z,97.53
2022-09-06T02:51:08.856Z,97.48
2022-09-06T02:53:36.093Z,97.52
2022-09-06T02:56:03.127Z,97.40
2022-09-06T02:58:30.116Z,97.47
2022-09-06T03:00:56.838Z,97.67
2022-09-06T03:03:24.931Z,97.79
2022-09-06T03:05:53.382Z,97.75
2022-09-06T03:08:21.932Z,97.61
2022-09-06T03:10:53.869Z,97.95
2022-09-06T03:13:20.940Z,97.72
2022-09-06T03:16:05.960Z,98.08
2022-09-06T03:18:33.041Z,97.97
2022-09-06T03:20:59.882Z,98.18
2022-09-06T03:23:28.873Z,98.04
2022-09-06T03:25:56.269Z,98.76
2022-09-06T03:28:23.534Z,99.63
2022-09-06T03:30:51.872Z,99.08
2022-09-06T03:33:19.998Z,98.85
2022-09-06T03:35:58.746Z,99.07
2022-09-06T03:38:27.408Z,99.56
2022-09-06T03:40:54.802Z,99.20
2022-09-06T03:43:23.383Z,99.06
2022-09-06T03:45:55.612Z,99.14
2022-09-06T03:48:23.956Z,96.83
2022-09-06T03:50:54.239Z,98.95
2022-09-06T03:53:22.138Z,100.00
2022-09-06T03:55:51.798Z,100.00
2022-09-06T03:58:20.480Z,100.00
2022-09-06T04:00:47.239Z,100.00
2022-09-06T04:03:14.281Z,100.00
2022-09-06T04:05:44.636Z,100.00
2022-09-06T04:08:11.331Z,100.00
2022-09-06T04:10:38.328Z,100.00
2022-09-06T04:13:05.043Z,100.00
2022-09-06T04:15:31.698Z,100.00
2022-09-06T04:17:58.522Z,100.00
2022-09-06T04:20:25.184Z,100.00
2022-09-06T04:22:51.947Z,100.00
2022-09-06T04:25:18.647Z,100.00
2022-09-06T04:27:45.297Z,100.00
2022-09-06T04:30:12.078Z,99.66
2022-09-06T04:32:38.743Z,100.00
2022-09-06T04:35:06.043Z,100.00
2022-09-06T04:37:32.712Z,100.00
2022-09-06T04:39:59.472Z,100.00
2022-09-06T04:42:26.238Z,100.00
2022-09-06T04:44:52.923Z,100.00
2022-09-06T04:47:19.959Z,100.00
2022-09-06T04:49:49.510Z,100.00
2022-09-06T04:52:16.463Z,100.00
2022-09-06T04:54:43.324Z,100.00
2022-09-06T04:57:10.039Z,100.00
2022-09-06T04:59:36.941Z,100.00
2022-09-06T05:02:03.722Z,100.00
2022-09-06T05:04:30.527Z,99.53
2022-09-06T05:07:02.177Z,99.29
2022-09-06T05:09:29.031Z,98.80
2022-09-06T05:11:56.234Z,99.62
2022-09-06T05:14:23.045Z,100.00
2022-09-06T05:16:50.398Z,100.00
2022-09-06T05:19:17.845Z,100.00
2022-09-06T05:21:45.069Z,100.00
2022-09-06T05:24:12.129Z,100.00
2022-09-06T05:26:38.859Z,100.00
2022-09-06T05:29:06.297Z,100.00
2022-09-06T05:31:34.683Z,100.00
2022-09-06T05:34:01.625Z,100.00
2022-09-06T05:36:29.718Z,100.00
2022-09-06T05:38:57.862Z,100.00
2022-09-06T05:41:25.463Z,100.00
2022-09-06T05:43:52.363Z,100.00
2022-09-06T05:46:19.296Z,100.00
2022-09-06T05:48:55.521Z,100.00
2022-09-06T05:51:22.246Z,100.00
2022-09-06T05:53:48.980Z,100.00
2022-09-06T05:56:16.574Z,100.00
2022-09-06T05:58:43.299Z,100.00
2022-09-06T06:01:21.672Z,100.00
2022-09-06T06:03:54.135Z,100.00
2022-09-06T06:06:22.143Z,100.00
2022-09-06T06:08:48.944Z,100.00
2022-09-06T06:11:16.243Z,100.00
2022-09-06T06:13:43.857Z,100.00
2022-09-06T06:16:15.266Z,100.00
2022-09-06T06:18:42.459Z,100.00
2022-09-06T06:21:10.074Z,100.00
2022-09-06T06:23:36.942Z,100.00
2022-09-06T06:26:03.838Z,100.00
2022-09-06T06:28:31.091Z,100.00
2022-09-06T06:30:57.758Z,100.00
2022-09-06T06:33:24.443Z,100.00
2022-09-06T06:36:17.775Z,100.00
2022-09-06T06:38:46.030Z,100.00
2022-09-06T06:41:14.797Z,100.00
2022-09-06T06:43:41.924Z,100.00
2022-09-06T06:46:11.016Z,100.00
2022-09-06T06:48:41.926Z,100.00
2022-09-06T06:51:10.051Z,100.00
2022-09-06T06:53:36.873Z,100.00
2022-09-06T06:56:19.386Z,100.00
2022-09-06T06:58:54.293Z,100.00
2022-09-06T07:01:22.485Z,100.00
2022-09-06T07:03:49.636Z,100.00
2022-09-06T07:06:17.200Z,100.00
2022-09-06T07:08:43.895Z,99.64
2022-09-06T07:11:13.214Z,98.72
2022-09-06T07:13:40.289Z,98.22
2022-09-06T07:16:13.566Z,97.49
2022-09-06T07:18:43.429Z,96.68
2022-09-06T07:26:31.881Z,95.50
2022-09-06T07:29:00.724Z,96.25
2022-09-06T07:34:16.162Z,96.47
2022-09-06T07:36:42.883Z,96.34
2022-09-06T07:39:09.551Z,95.43
2022-09-06T07:41:36.217Z,95.40
2022-09-06T07:44:03.420Z,94.90
2022-09-06T07:46:30.115Z,95.00
2022-09-06T07:48:56.926Z,96.07
2022-09-06T07:51:23.652Z,96.06
2022-09-06T07:53:57.877Z,96.58
2022-09-06T07:56:30.197Z,96.78
2022-09-06T07:58:57.672Z,96.51
2022-09-06T08:01:30.167Z,96.80
2022-09-06T08:04:08.737Z,97.13
2022-09-06T08:09:25.235Z,96.58
2022-09-06T08:11:52.845Z,96.80
2022-09-06T08:14:20.454Z,96.75
2022-09-06T08:16:47.318Z,96.41
2022-09-06T08:19:14.152Z,96.33
2022-09-06T08:21:40.900Z,94.97
2022-09-06T08:24:12.535Z,94.87
2022-09-06T08:26:40.757Z,93.02
2022-09-06T08:29:08.952Z,90.17
2022-09-06T08:31:38.959Z,87.57
2022-09-06T08:34:06.266Z,85.65
2022-09-06T08:36:33.794Z,84.07
2022-09-06T08:39:03.916Z,81.01
2022-09-06T08:41:52.053Z,79.58
2022-09-06T08:47:19.743Z,79.31
2022-09-06T08:49:54.756Z,78.04
2022-09-06T08:53:06.509Z,78.34
2022-09-06T08:55:42.295Z,78.66
2022-09-06T08:58:21.237Z,79.70
2022-09-06T09:00:58.712Z,78.17
2022-09-06T09:03:36.710Z,76.48
2022-09-06T09:06:10.203Z,73.95
2022-09-06T09:08:55.677Z,73.57
2022-09-06T09:11:25.597Z,72.19
2022-09-06T09:14:26.818Z,72.43
2022-09-06T09:16:56.626Z,72.29
2022-09-06T09:19:23.311Z,72.69
2022-09-06T09:21:50.010Z,71.44
2022-09-06T09:24:16.761Z,72.42
2022-09-06T09:27:11.193Z,72.49
2022-09-06T09:32:46.297Z,71.20
2022-09-06T09:35:41.846Z,69.66
2022-09-06T09:38:12.414Z,69.39
2022-09-06T09:40:50.423Z,70.46
2022-09-06T09:43:22.363Z,69.64
2022-09-06T09:46:07.873Z,69.51
2022-09-06T09:48:34.621Z,70.37
2022-09-06T09:51:27.489Z,69.49
2022-09-06T09:53:59.938Z,69.04
2022-09-06T09:56:37.795Z,67.66
2022-09-06T09:59:16.008Z,64.37
2022-09-06T10:01:42.735Z,66.08
2022-09-06T10:07:19.806Z,63.38
2022-09-06T10:09:50.173Z,63.68
2022-09-06T10:12:19.859Z,64.45
2022-09-06T10:14:49.932Z,64.71
2022-09-06T10:17:38.576Z,63.82
2022-09-06T10:20:10.841Z,65.09
2022-09-06T10:22:49.866Z,64.66
2022-09-06T10:25:25.917Z,65.66
2022-09-06T10:28:19.081Z,64.79
2022-09-06T10:30:57.699Z,64.16
2022-09-06T10:33:31.066Z,65.19
2022-09-06T10:36:02.191Z,63.87
2022-09-06T10:38:42.017Z,65.11
2022-09-06T10:41:34.905Z,64.76
2022-09-06T10:44:36.759Z,63.87
2022-09-06T10:47:11.750Z,65.79
2022-09-06T10:49:41.017Z,66.33
2022-09-06T10:52:13.459Z,67.10
2022-09-06T10:54:41.523Z,66.84
2022-09-06T11:00:13.279Z,65.07
2022-09-06T11:05:46.595Z,63.35
2022-09-06T11:11:17.280Z,64.66
2022-09-06T11:13:44.072Z,64.28
2022-09-06T11:16:22.859Z,63.65
2022-09-06T11:19:05.392Z,63.85
2022-09-06T11:21:35.108Z,62.36
2022-09-06T11:24:25.409Z,63.19
2022-09-06T11:27:07.421Z,63.44
2022-09-06T11:29:35.671Z,61.62
2022-09-06T11:32:24.135Z,62.07
2022-09-06T11:34:56.811Z,61.62
2022-09-06T11:37:27.665Z,61.54
2022-09-06T11:42:51.239Z,61.13
2022-09-06T11:45:40.883Z,61.35
2022-09-06T11:48:34.318Z,60.94
2022-09-06T11:51:10.797Z,61.41
2022-09-06T11:53:49.938Z,60.41
2022-09-06T11:56:30.116Z,61.44
2022-09-06T11:59:03.772Z,61.42
2022-09-06T12:01:30.458Z,60.22
2022-09-06T12:04:05.476Z,59.62
2022-09-06T12:06:40.909Z,60.02
2022-09-06T12:09:46.909Z,61.03
2022-09-06T12:12:41.152Z,61.17
2022-09-06T12:15:32.807Z,61.10
2022-09-06T12:18:00.294Z,59.73
2022-09-06T12:20:53.127Z,57.99
2022-09-06T12:23:34.796Z,58.28
2022-09-06T12:26:02.494Z,57.19
2022-09-06T12:28:38.779Z,58.02
2022-09-06T12:31:28.890Z,60.20
2022-09-06T12:33:57.919Z,59.27
2022-09-06T12:36:30.431Z,59.56
2022-09-06T12:38:58.820Z,60.86
2022-09-06T12:41:28.539Z,61.07
2022-09-06T12:43:56.310Z,61.15
2022-09-06T12:46:25.688Z,60.09
2022-09-06T12:49:11.867Z,60.06
2022-09-06T12:51:41.043Z,58.94
2022-09-06T12:54:20.468Z,59.14
2022-09-06T12:56:47.775Z,59.84
2022-09-06T12:59:24.535Z,59.68
2022-09-06T13:01:56.242Z,60.48
2022-09-06T13:04:41.545Z,61.56
2022-09-06T13:07:15.648Z,62.68
2022-09-06T13:09:49.046Z,63.52
2022-09-06T13:12:26.366Z,63.34
2022-09-06T13:14:56.438Z,62.72
2022-09-06T13:17:25.963Z,62.25
2022-09-06T13:19:52.792Z,62.03
2022-09-06T13:22:42.763Z,60.67
2022-09-06T13:25:18.652Z,60.71
2022-09-06T13:27:56.591Z,61.56
2022-09-06T13:30:37.346Z,59.98
2022-09-06T13:33:07.295Z,60.96
2022-09-06T13:35:38.241Z,62.46
2022-09-06T13:38:35.066Z,61.69
2022-09-06T13:41:12.546Z,61.53
2022-09-06T13:43:45.915Z,60.40
2022-09-06T13:46:12.772Z,60.18
2022-09-06T13:48:39.741Z,59.89
2022-09-06T13:51:08.148Z,60.73
2022-09-06T13:53:35.563Z,62.20
2022-09-06T13:56:02.764Z,61.41
2022-09-06T13:58:29.935Z,61.77
2022-09-06T14:00:56.969Z,60.84
2022-09-06T14:03:31.287Z,60.70
2022-09-06T14:06:00.335Z,59.92
2022-09-06T14:08:38.874Z,58.99
2022-09-06T14:11:15.323Z,59.68
2022-09-06T14:13:42.127Z,58.72
2022-09-06T14:16:08.913Z,59.51
2022-09-06T14:18:36.414Z,57.82
2022-09-06T14:21:05.308Z,57.26
2022-09-06T14:23:32.019Z,57.48
2022-09-06T14:26:00.709Z,56.96
2022-09-06T14:28:28.779Z,56.91
2022-09-06T14:30:55.539Z,56.25
2022-09-06T14:33:22.425Z,57.67
2022-09-06T14:35:49.394Z,58.08
2022-09-06T14:38:16.118Z,57.54
2022-09-06T14:40:44.294Z,56.59
2022-09-06T14:43:11.209Z,56.35
2022-09-06T14:45:37.881Z,55.67
2022-09-06T14:48:05.580Z,56.54
2022-09-06T14:50:32.521Z,54.86
2022-09-06T14:52:59.278Z,54.51
2022-09-06T14:55:28.131Z,54.64
2022-09-06T14:57:55.036Z,55.16
2022-09-06T15:00:22.793Z,55.00
2022-09-06T15:02:49.532Z,55.08
2022-09-06T15:05:16.364Z,55.48
2022-09-06T15:07:43.265Z,55.53
2022-09-06T15:10:10.946Z,55.32
2022-09-06T15:12:38.186Z,54.95
2022-09-06T15:15:05.770Z,55.46
2022-09-06T15:17:34.349Z,55.35
2022-09-06T15:20:01.305Z,57.79
2022-09-06T15:22:28.022Z,58.34
2022-09-06T15:24:54.738Z,58.42
2022-09-06T15:27:21.690Z,58.03
2022-09-06T15:29:48.370Z,59.55
2022-09-06T15:32:15.026Z,60.44
2022-09-06T15:34:41.791Z,61.57
2022-09-06T15:37:08.471Z,62.36
2022-09-06T15:39:35.259Z,62.02
2022-09-06T15:42:01.947Z,62.89
2022-09-06T15:44:28.653Z,64.08
2022-09-06T15:47:00.159Z,62.14
2022-09-06T15:49:28.661Z,63.54
2022-09-06T15:51:57.066Z,62.27
2022-09-06T15:54:42.946Z,62.79
2022-09-06T15:57:09.714Z,62.27
2022-09-06T15:59:36.571Z,62.20
2022-09-06T16:02:03.448Z,62.22
2022-09-06T16:04:30.215Z,62.65
2022-09-06T16:06:56.895Z,62.48
2022-09-06T16:09:23.764Z,64.13
2022-09-06T16:11:50.496Z,65.03
2022-09-06T16:14:17.968Z,66.94
2022-09-06T16:16:44.878Z,67.31
2022-09-06T16:19:12.725Z,67.74
2022-09-06T16:21:41.740Z,68.09
2022-09-06T16:24:11.069Z,68.22
2022-09-06T16:26:40.542Z,68.27
2022-09-06T16:29:08.482Z,68.29
2022-09-06T16:31:40.056Z,68.81
2022-09-06T16:34:08.464Z,68.65
2022-09-06T16:36:35.315Z,68.99
2022-09-06T16:39:02.446Z,68.99
2022-09-06T16:41:46.278Z,69.54
2022-09-06T16:44:17.029Z,69.69
2022-09-06T16:46:48.570Z,70.26
2022-09-06T16:49:17.478Z,70.88
2022-09-06T16:51:44.532Z,71.36
2022-09-06T16:54:11.251Z,71.71
2022-09-06T16:56:39.065Z,71.78
2022-09-06T16:59:08.426Z,71.65
2022-09-06T17:01:36.732Z,72.15
2022-09-06T17:04:05.620Z,72.59
2022-09-06T17:06:34.181Z,73.23
2022-09-06T17:09:01.009Z,73.33
2022-09-06T17:11:28.825Z,73.97
2022-09-06T17:13:56.907Z,74.20
2022-09-06T17:16:43.507Z,74.43
2022-09-06T17:19:11.108Z,75.20
2022-09-06T17:21:39.305Z,75.77
2022-09-06T17:24:06.821Z,76.45
2022-09-06T17:26:36.246Z,76.49
2022-09-06T17:29:03.326Z,77.11
2022-09-06T17:31:30.957Z,77.71
2022-09-06T17:33:59.791Z,78.02
2022-09-06T17:36:31.751Z,78.27
2022-09-06T17:39:04.742Z,79.21
2022-09-06T17:41:40.158Z,79.82
2022-09-06T17:44:10.504Z,79.75
2022-09-06T17:46:41.145Z,80.12
2022-09-06T17:49:10.806Z,80.98
2022-09-06T17:51:37.990Z,81.04
2022-09-06T17:54:06.103Z,81.57
2022-09-06T17:56:34.454Z,82.00
2022-09-06T17:59:07.642Z,81.99
2022-09-06T18:01:37.317Z,82.13
2022-09-06T18:04:09.450Z,82.56
2022-09-06T18:06:39.973Z,82.53
2022-09-06T18:09:14.612Z,83.36
2022-09-06T18:11:45.580Z,83.63
2022-09-06T18:14:18.767Z,84.49
2022-09-06T18:16:47.186Z,84.71
2022-09-06T18:19:15.295Z,84.77
2022-09-06T18:21:41.982Z,84.97
2022-09-06T18:24:10.328Z,85.01
2022-09-06T18:26:37.570Z,85.40
2022-09-06T18:29:07.158Z,86.26
2022-09-06T18:31:34.297Z,87.59
2022-09-06T18:34:01.203Z,88.82
2022-09-06T18:36:31.972Z,90.09
2022-09-06T18:39:04.271Z,91.05
2022-09-06T18:41:51.197Z,91.88
2022-09-06T18:44:18.036Z,92.44
2022-09-06T18:46:44.861Z,92.61
2022-09-06T18:49:14.325Z,92.47
2022-09-06T18:51:41.381Z,92.32
2022-09-06T18:54:08.076Z,92.23
2022-09-06T18:56:34.899Z,92.00
2022-09-06T18:59:02.247Z,91.84
2022-09-06T19:01:30.293Z,92.19
2022-09-06T19:03:57.880Z,91.86
2022-09-06T19:06:25.110Z,91.65
2022-09-06T19:08:53.860Z,90.98
2022-09-06T19:11:22.260Z,90.99
2022-09-06T19:13:53.645Z,90.68
2022-09-06T19:16:21.986Z,90.61
2022-09-06T19:18:49.263Z,90.53
2022-09-06T19:21:19.087Z,90.52
2022-09-06T19:23:47.757Z,90.34
2022-09-06T19:26:19.922Z,90.46
2022-09-06T19:28:53.119Z,90.71
2022-09-06T19:31:19.943Z,90.95
2022-09-06T19:33:48.031Z,91.18
2022-09-06T19:36:15.877Z,90.88
2022-09-06T19:39:02.109Z,90.72
2022-09-06T19:41:30.486Z,90.25
2022-09-06T19:43:58.551Z,90.36
2022-09-06T19:46:26.757Z,90.35
2022-09-06T19:48:58.513Z,90.46
2022-09-06T19:51:25.178Z,91.08
2022-09-06T19:53:53.988Z,90.69
2022-09-06T19:56:23.659Z,91.10
2022-09-06T19:58:59.100Z,92.03
2022-09-06T20:01:29.235Z,92.34
2022-09-06T20:03:56.500Z,92.71
2022-09-06T20:06:23.361Z,93.49
2022-09-06T20:08:52.382Z,94.00
2022-09-06T20:11:24.392Z,94.83
2022-09-06T20:13:51.150Z,95.20
2022-09-06T20:16:20.802Z,95.04
2022-09-06T20:18:48.481Z,95.47
2022-09-06T20:21:17.745Z,95.90
2022-09-06T20:23:49.508Z,96.19
2022-09-06T20:26:16.444Z,96.91
2022-09-06T20:28:44.238Z,96.55
2022-09-06T20:31:13.801Z,96.85
2022-09-06T20:33:40.734Z,96.82
2022-09-06T20:36:10.872Z,97.37
2022-09-06T20:38:42.623Z,97.59
2022-09-06T20:41:13.555Z,99.09
2022-09-06T20:43:41.380Z,98.90
2022-09-06T20:46:12.376Z,99.17
2022-09-06T20:48:44.171Z,99.53
2022-09-06T20:51:19.099Z,99.96
2022-09-06T20:53:56.339Z,100.00
2022-09-06T20:56:28.223Z,100.00
2022-09-06T20:58:57.442Z,100.00
2022-09-06T21:01:26.173Z,100.00
2022-09-06T21:03:58.863Z,100.00
2022-09-06T21:06:27.631Z,100.00
2022-09-06T21:08:55.180Z,100.00
2022-09-06T21:11:22.746Z,100.00
2022-09-06T21:13:53.531Z,100.00
2022-09-06T21:16:24.380Z,100.00
2022-09-06T21:18:57.001Z,100.00
2022-09-06T21:21:24.780Z,100.00
2022-09-06T21:23:51.766Z,100.00
2022-09-06T21:26:18.754Z,100.00
2022-09-06T21:28:47.179Z,100.00
2022-09-06T21:31:25.777Z,100.00
2022-09-06T21:33:57.309Z,100.00
2022-09-06T21:36:31.576Z,99.89
2022-09-06T21:39:01.146Z,99.73
2022-09-06T21:41:29.063Z,99.68
2022-09-06T21:43:58.653Z,99.61
2022-09-06T21:46:32.575Z,99.89
2022-09-06T21:49:05.601Z,99.93
2022-09-06T21:51:32.757Z,99.81
2022-09-06T21:54:03.527Z,99.87
2022-09-06T21:56:30.969Z,99.45
2022-09-06T21:58:58.712Z,99.21
2022-09-06T22:01:28.102Z,99.04
2022-09-06T22:03:55.772Z,98.23
2022-09-06T22:06:26.260Z,97.93
2022-09-06T22:08:54.059Z,97.67
2022-09-06T22:11:26.546Z,97.32
2022-09-06T22:13:53.740Z,97.65
2022-09-06T22:16:22.469Z,97.99
2022-09-06T22:18:49.958Z,98.29
2022-09-06T22:21:20.210Z,98.27
2022-09-06T22:23:55.635Z,98.13
2022-09-06T22:26:23.254Z,97.71
2022-09-06T22:28:57.825Z,97.78
2022-09-06T22:31:27.091Z,97.92
2022-09-06T22:33:54.919Z,97.24
2022-09-06T22:36:23.836Z,96.68
2022-09-06T22:38:57.445Z,96.62
2022-09-06T22:41:26.564Z,95.62
2022-09-06T22:43:54.092Z,95.50
2022-09-06T22:46:21.181Z,96.20
2022-09-06T22:48:49.430Z,95.97
2022-09-06T22:51:16.701Z,96.33
2022-09-06T22:53:43.990Z,96.54
2022-09-06T22:56:11.143Z,96.82
2022-09-06T22:58:38.317Z,96.96
2022-09-06T23:01:10.618Z,96.92
2022-09-06T23:03:38.235Z,96.43
2022-09-06T23:06:05.701Z,95.81
2022-09-06T23:08:35.000Z,96.21
2022-09-06T23:11:13.477Z,95.87
2022-09-06T23:13:44.126Z,96.23
2022-09-06T23:16:19.412Z,96.24
2022-09-06T23:18:47.227Z,96.11
2022-09-06T23:21:17.139Z,95.98
2022-09-06T23:23:44.218Z,95.30
2022-09-06T23:26:30.562Z,95.26
2022-09-06T23:28:58.162Z,95.56
2022-09-06T23:31:27.350Z,95.42
2022-09-06T23:33:58.983Z,95.38
2022-09-06T23:36:26.223Z,95.14
2022-09-06T23:38:53.208Z,95.13
2022-09-06T23:41:20.341Z,95.64
2022-09-06T23:43:47.038Z,96.14
2022-09-06T23:46:17.006Z,96.53
2022-09-06T23:48:43.714Z,96.85
2022-09-06T23:51:11.171Z,96.67
2022-09-06T23:53:38.471Z,96.53
2022-09-06T23:56:05.843Z,95.03
2022-09-06T23:58:32.941Z,93.95
